Time;durP1;ratioP1;P1;durP2;ratioP2;P2;SDS_P1;SDS_P2;PMS_P1;PMS_P2;Temp;Humidity;BMP_temperature;BMP_pressure;BME280_temperature;BME280_humidity;BME280_pressure;Samples;Min_cycle;Max_cycle;Signal;HPM_P1;HPM_P2
2023/06/02 00:00:39;;;;;;;;;;;;;;;16.37;48.23;100992.50;4966873;28;6960;-75
2023/06/02 00:03:05;;;;;;;;;;;;;;;16.37;48.69;100987.34;4986490;28;6836;-75
2023/06/02 00:05:31;;;;;;;;;;;;;;;16.38;48.10;100995.16;4957355;28;7173;-75
2023/06/02 00:07:58;;;;;;;;;;;;;;;16.38;48.09;100983.91;4975131;28;7247;-75
2023/06/02 00:10:24;;;;;;;;;;;;;;;16.38;47.99;100989.09;4968083;28;7053;-75
2023/06/02 00:12:50;;;;;;;;;;;;;;;16.40;48.03;100991.75;4959271;28;6764;-75
2023/06/02 00:15:17;;;;;;;;;;;;;;;16.41;48.12;100980.56;4994775;28;6959;-75
2023/06/02 00:17:42;;;;;;;;;;;;;;;16.42;48.27;100974.56;4960793;28;7180;-75
2023/06/02 00:20:09;;;;;;;;;;;;;;;16.44;47.56;100978.06;4965198;28;7067;-75
2023/06/02 00:22:37;;;;;;;;;;;;;;;16.43;47.67;100972.03;4982804;28;6885;-75
2023/06/02 00:25:04;;;;;;;;;;;;;;;16.43;47.69;100978.91;4974827;28;7002;-76
2023/06/02 00:27:30;;;;;;;;;;;;;;;16.44;47.63;100978.06;4972315;28;6784;-75
2023/06/02 00:29:55;;;;;;;;;;;;;;;16.45;47.99;100982.41;4978265;28;7045;-75
2023/06/02 00:32:21;;;;;;;;;;;;;;;16.43;47.31;100982.38;4959867;28;7250;-75
2023/06/02 00:34:47;;;;;;;;;;;;;;;16.44;47.48;100986.72;4996558;28;6791;-76
2023/06/02 00:37:12;;;;;;;;;;;;;;;16.44;47.49;100985.84;4965014;28;6785;-75
2023/06/02 00:39:38;;;;;;;;;;;;;;;16.45;47.13;100991.06;4975600;28;6961;-75
2023/06/02 00:42:05;;;;;;;;;;;;;;;16.46;47.19;100994.50;4963968;28;6923;-75
2023/06/02 00:44:31;;;;;;;;;;;;;;;16.44;47.04;100989.31;4980921;28;6983;-75
2023/06/02 00:46:56;;;;;;;;;;;;;;;16.45;46.71;100985.91;4947350;28;7202;-75
2023/06/02 00:49:22;;;;;;;;;;;;;;;16.43;47.16;100992.72;4991195;28;6856;-75
2023/06/02 00:51:50;;;;;;;;;;;;;;;16.43;47.14;100987.56;4961701;28;7526;-75
2023/06/02 00:54:16;;;;;;;;;;;;;;;16.43;46.69;100991.84;4949692;28;7055;-75
2023/06/02 00:56:43;;;;;;;;;;;;;;;16.43;47.06;100978.91;4975293;28;6799;-75
2023/06/02 00:59:11;;;;;;;;;;;;;;;16.42;47.11;100972.88;4993996;28;6867;-75
2023/06/02 01:01:38;;;;;;;;;;;;;;;16.42;46.45;100983.22;4978598;28;7214;-75
2023/06/02 01:04:05;;;;;;;;;;;;;;;16.42;46.56;100980.63;4962126;28;7042;-75
2023/06/02 01:06:37;;;;;;;;;;;;;;;16.42;46.61;100977.16;4995500;28;7200;-75
2023/06/02 01:09:08;;;;;;;;;;;;;;;16.42;46.72;100983.22;4974078;28;7317;-75
2023/06/02 01:11:34;;;;;;;;;;;;;;;16.42;46.77;100984.91;4981425;28;7043;-75
2023/06/02 01:14:01;;;;;;;;;;;;;;;16.41;46.71;100976.25;4961439;28;6780;-76
2023/06/02 01:16:27;;;;;;;;;;;;;;;16.40;46.50;100982.25;4964831;28;6796;-75
2023/06/02 01:18:53;;;;;;;;;;;;;;;16.40;46.56;100978.81;4958797;28;7186;-75
2023/06/02 01:21:24;;;;;;;;;;;;;;;16.40;46.65;100979.66;4962254;28;6804;-76
2023/06/02 01:23:57;;;;;;;;;;;;;;;16.38;46.59;100979.66;4980862;28;6796;-75
2023/06/02 01:26:29;;;;;;;;;;;;;;;16.38;46.41;100978.75;4952042;28;7268;-76
2023/06/02 01:28:54;;;;;;;;;;;;;;;16.37;46.78;100982.16;4959907;28;6812;-76
2023/06/02 01:31:27;;;;;;;;;;;;;;;16.35;46.40;100983.84;4956865;28;6775;-75
2023/06/02 01:34:13;;;;;;;;;;;;;;;16.36;46.67;100970.06;4977159;28;6800;-76
2023/06/02 01:36:42;;;;;;;;;;;;;;;16.35;46.58;100981.25;4965646;28;7119;-76
2023/06/02 01:39:10;;;;;;;;;;;;;;;16.35;46.59;100974.34;4947483;28;7071;-75
2023/06/02 01:41:42;;;;;;;;;;;;;;;16.34;46.34;100966.56;4988337;28;6877;-75
2023/06/02 01:44:08;;;;;;;;;;;;;;;16.34;46.60;100969.13;4990835;28;6807;-75
2023/06/02 01:46:34;;;;;;;;;;;;;;;16.32;46.61;100976.84;4961429;28;6856;-75
2023/06/02 01:49:00;;;;;;;;;;;;;;;16.31;46.39;100974.19;4961798;28;7239;-75
2023/06/02 01:51:25;;;;;;;;;;;;;;;16.31;46.15;100971.59;4978629;28;8468;-75
2023/06/02 01:53:51;;;;;;;;;;;;;;;16.30;46.52;100975.03;4981740;28;7009;-75
2023/06/02 01:56:17;;;;;;;;;;;;;;;16.30;46.24;100972.44;4993101;28;7090;-76
2023/06/02 01:58:42;;;;;;;;;;;;;;;16.28;46.10;100968.91;4975011;28;6952;-75
2023/06/02 02:01:08;;;;;;;;;;;;;;;16.28;46.34;100971.50;4962216;28;6962;-75
2023/06/02 02:03:34;;;;;;;;;;;;;;;16.27;46.30;100974.94;4961705;28;7171;-75
2023/06/02 02:05:59;;;;;;;;;;;;;;;16.26;46.35;100968.00;4967905;28;7833;-75
2023/06/02 02:08:25;;;;;;;;;;;;;;;16.25;46.59;100972.28;4958761;28;7105;-75
2023/06/02 02:10:51;;;;;;;;;;;;;;;16.24;46.35;100974.00;4962141;28;7145;-75
2023/06/02 02:13:16;;;;;;;;;;;;;;;16.25;46.41;100977.44;4960657;28;6950;-75
2023/06/02 02:15:43;;;;;;;;;;;;;;;16.24;46.66;100973.13;4955560;28;6957;-75
2023/06/02 02:18:09;;;;;;;;;;;;;;;16.23;46.49;100973.94;4960295;28;6995;-75
2023/06/02 02:20:42;;;;;;;;;;;;;;;16.22;46.92;100978.25;4955147;28;6988;-75
2023/06/02 02:23:08;;;;;;;;;;;;;;;16.21;46.74;100973.88;4988520;28;7008;-75
2023/06/02 02:25:33;;;;;;;;;;;;;;;16.21;46.50;100979.06;4965069;28;6961;-75
2023/06/02 02:27:59;;;;;;;;;;;;;;;16.20;47.01;100977.28;4959017;28;6814;-75
2023/06/02 02:30:24;;;;;;;;;;;;;;;16.20;46.44;100977.28;4985189;28;6924;-75
2023/06/02 02:32:51;;;;;;;;;;;;;;;16.18;46.09;100984.13;4961762;28;7161;-77
2023/06/02 02:35:17;;;;;;;;;;;;;;;16.16;46.35;100984.91;4978523;28;6841;-76
2023/06/02 02:37:44;;;;;;;;;;;;;;;16.12;46.65;100991.66;4986978;28;6792;-75
2023/06/02 02:40:10;;;;;;;;;;;;;;;16.07;46.24;100990.63;4976205;28;6993;-75
2023/06/02 02:42:35;;;;;;;;;;;;;;;16.03;45.93;100992.22;4955421;28;7011;-75
2023/06/02 02:45:02;;;;;;;;;;;;;;;16.01;46.12;100993.00;4959045;28;8002;-75
2023/06/02 02:47:28;;;;;;;;;;;;;;;15.98;46.11;100992.91;4987014;28;7885;-75
2023/06/02 02:49:54;;;;;;;;;;;;;;;15.94;46.28;101003.16;4991503;28;6788;-75
2023/06/02 02:52:20;;;;;;;;;;;;;;;15.91;45.95;100997.84;4961179;28;6863;-75
2023/06/02 02:54:46;;;;;;;;;;;;;;;15.89;45.84;101001.19;4959837;28;6796;-75
2023/06/02 02:57:12;;;;;;;;;;;;;;;15.87;46.24;100995.06;4944519;28;6973;-78
2023/06/02 02:59:37;;;;;;;;;;;;;;;15.86;46.01;100998.47;4971457;28;6922;-74
2023/06/02 03:02:07;;;;;;;;;;;;;;;15.84;45.84;101003.59;4975557;28;6977;-74
2023/06/02 03:04:34;;;;;;;;;;;;;;;15.84;45.69;101001.03;4959906;28;7359;-74
2023/06/02 03:07:04;;;;;;;;;;;;;;;15.81;45.58;100996.63;4948870;28;7241;-74
2023/06/02 03:09:29;;;;;;;;;;;;;;;15.81;45.67;100996.63;4988161;28;6796;-73
2023/06/02 03:11:57;;;;;;;;;;;;;;;15.81;46.25;100998.31;4959511;28;6979;-74
2023/06/02 03:14:26;;;;;;;;;;;;;;;15.80;45.95;100993.97;4956086;28;6997;-74
2023/06/02 03:16:52;;;;;;;;;;;;;;;15.79;45.86;100994.78;4968681;28;6871;-76
2023/06/02 03:19:17;;;;;;;;;;;;;;;15.76;45.82;101000.72;4963907;28;7196;-73
2023/06/02 03:21:44;;;;;;;;;;;;;;;15.74;45.50;101004.97;4990068;28;6764;-76
2023/06/02 03:24:11;;;;;;;;;;;;;;;15.71;45.46;101009.13;4994032;28;6974;-73
2023/06/02 03:26:45;;;;;;;;;;;;;;;15.68;45.55;101005.63;4962547;28;7288;-73
2023/06/02 03:29:12;;;;;;;;;;;;;;;15.65;45.59;101004.63;4953483;28;6849;-76
2023/06/02 03:31:41;;;;;;;;;;;;;;;15.65;46.08;101013.28;4959664;28;6800;-73
2023/06/02 03:34:07;;;;;;;;;;;;;;;15.64;45.58;101010.63;4967051;28;7229;-75
2023/06/02 03:36:37;;;;;;;;;;;;;;;15.63;45.83;101007.16;4957863;28;6887;-73
2023/06/02 03:39:07;;;;;;;;;;;;;;;15.62;45.58;101009.69;4993666;28;7058;-73
2023/06/02 03:41:35;;;;;;;;;;;;;;;15.57;45.75;101004.34;4958128;28;7005;-74
2023/06/02 03:44:03;;;;;;;;;;;;;;;15.56;45.73;101010.34;4958279;28;6984;-73
2023/06/02 03:46:28;;;;;;;;;;;;;;;15.52;45.44;101013.63;4960625;28;6864;-75
2023/06/02 03:48:55;;;;;;;;;;;;;;;15.51;45.78;101023.09;4953384;28;6977;-73
2023/06/02 03:51:20;;;;;;;;;;;;;;;15.50;45.50;101012.69;4949800;28;7047;-74
2023/06/02 03:53:49;;;;;;;;;;;;;;;15.49;45.54;101016.09;4992682;28;6772;-73
2023/06/02 03:56:14;;;;;;;;;;;;;;;15.47;45.04;101020.34;4961585;28;6960;-74
2023/06/02 03:58:40;;;;;;;;;;;;;;;15.47;45.47;101017.75;4943203;28;7283;-74
2023/06/02 04:01:06;;;;;;;;;;;;;;;15.46;45.26;101014.28;4974686;28;6784;-74
2023/06/02 04:03:37;;;;;;;;;;;;;;;15.46;45.24;101022.03;4994761;28;6775;-74
2023/06/02 04:06:07;;;;;;;;;;;;;;;15.43;45.67;101016.75;4995267;28;6967;-73
2023/06/02 04:08:33;;;;;;;;;;;;;;;15.43;45.54;101021.91;4992338;28;6948;-75
2023/06/02 04:10:59;;;;;;;;;;;;;;;15.44;45.98;101026.25;4962298;28;6949;-75
2023/06/02 04:13:25;;;;;;;;;;;;;;;15.45;45.46;101016.78;4988710;28;6823;-73
2023/06/02 04:15:51;;;;;;;;;;;;;;;15.48;45.44;101024.69;4962213;28;7145;-74
2023/06/02 04:18:16;;;;;;;;;;;;;;;15.49;45.95;101019.53;4946998;28;7226;-74
2023/06/02 04:20:42;;;;;;;;;;;;;;;15.51;45.69;101025.69;4985565;28;6771;-75
2023/06/02 04:23:09;;;;;;;;;;;;;;;15.53;45.73;101023.13;4959173;28;7474;-74
2023/06/02 04:25:35;;;;;;;;;;;;;;;15.54;45.84;101027.47;4990495;28;6796;-74
2023/06/02 04:28:01;;;;;;;;;;;;;;;15.54;45.42;101022.31;4960654;28;6784;-76
2023/06/02 04:30:26;;;;;;;;;;;;;;;15.54;45.46;101027.47;4981780;28;6996;-76
2023/06/02 04:32:53;;;;;;;;;;;;;;;15.53;45.76;101028.28;4986627;28;6828;-74
2023/06/02 04:35:20;;;;;;;;;;;;;;;15.53;45.80;101030.88;4969703;28;7296;-73
2023/06/02 04:37:46;;;;;;;;;;;;;;;15.53;45.33;101031.78;4971689;28;7226;-73
2023/06/02 04:40:14;;;;;;;;;;;;;;;15.50;45.21;101036.84;4947164;28;6944;-76
2023/06/02 04:42:40;;;;;;;;;;;;;;;15.45;45.49;101043.50;4961150;28;6792;-73
2023/06/02 04:45:13;;;;;;;;;;;;;;;15.39;45.05;101035.50;4982421;28;6847;-75
2023/06/02 04:47:40;;;;;;;;;;;;;;;15.35;44.55;101039.69;4961607;28;7330;-76
2023/06/02 04:50:13;;;;;;;;;;;;;;;15.33;44.61;101046.50;4987059;28;7018;-75
2023/06/02 04:52:40;;;;;;;;;;;;;;;15.32;44.95;101042.16;4956240;28;7254;-73
2023/06/02 04:55:11;;;;;;;;;;;;;;;15.32;44.46;101049.91;4982196;28;6792;-74
2023/06/02 04:57:37;;;;;;;;;;;;;;;15.35;44.50;101057.75;4957381;28;6808;-73
2023/06/02 05:00:05;;;;;;;;;;;;;;;15.36;44.85;101048.31;4972643;28;6991;-73
2023/06/02 05:02:31;;;;;;;;;;;;;;;15.35;44.95;101039.69;4951176;28;7208;-74
2023/06/02 05:04:57;;;;;;;;;;;;;;;15.37;44.77;101056.13;4956643;28;6821;-73
2023/06/02 05:07:23;;;;;;;;;;;;;;;15.37;44.21;101044.91;4948712;28;6989;-72
2023/06/02 05:09:48;;;;;;;;;;;;;;;15.39;44.52;101045.84;4981226;28;7125;-75
2023/06/02 05:12:16;;;;;;;;;;;;;;;15.40;44.06;101043.34;4959859;28;7107;-72
2023/06/02 05:14:42;;;;;;;;;;;;;;;15.41;44.15;101045.09;4958994;28;7997;-73
2023/06/02 05:17:08;;;;;;;;;;;;;;;15.41;44.43;101046.81;4956207;28;6815;-73
2023/06/02 05:19:35;;;;;;;;;;;;;;;15.39;44.48;101054.50;4940044;28;7298;-73
2023/06/02 05:22:02;;;;;;;;;;;;;;;15.37;44.04;101053.56;4957606;28;6808;-73
2023/06/02 05:24:29;;;;;;;;;;;;;;;15.39;44.06;101053.59;4985137;28;6860;-73
2023/06/02 05:26:55;;;;;;;;;;;;;;;15.45;44.28;101052.94;4976762;28;6841;-73
2023/06/02 05:29:20;;;;;;;;;;;;;;;15.48;43.91;101055.66;4959882;28;6780;-74
2023/06/02 05:31:46;;;;;;;;;;;;;;;15.50;44.18;101051.44;4989515;28;6863;-74
2023/06/02 05:34:12;;;;;;;;;;;;;;;15.53;44.26;101052.44;4959970;28;6964;-72
2023/06/02 05:36:37;;;;;;;;;;;;;;;15.57;43.86;101053.44;4956341;28;6771;-72
2023/06/02 05:39:03;;;;;;;;;;;;;;;15.62;44.01;101045.88;4956330;28;6776;-73
2023/06/02 05:41:29;;;;;;;;;;;;;;;15.66;43.48;101048.63;4985931;28;6775;-73
2023/06/02 05:43:55;;;;;;;;;;;;;;;15.68;43.74;101051.25;4958878;28;6955;-73
2023/06/02 05:46:22;;;;;;;;;;;;;;;15.71;44.13;101055.66;4959802;28;7128;-74
2023/06/02 05:48:49;;;;;;;;;;;;;;;15.73;43.69;101049.72;4987941;28;6800;-74
2023/06/02 05:51:15;;;;;;;;;;;;;;;15.75;44.18;101052.38;4955679;28;6931;-72
2023/06/02 05:53:41;;;;;;;;;;;;;;;15.76;44.04;101052.41;4960818;28;7277;-74
2023/06/02 05:56:07;;;;;;;;;;;;;;;15.78;43.64;101057.66;4987845;28;6795;-73
2023/06/02 05:58:38;;;;;;;;;;;;;;;15.79;43.56;101059.41;4972318;28;7248;-73
2023/06/02 06:01:04;;;;;;;;;;;;;;;15.80;43.32;101061.16;4974483;28;6954;-73
2023/06/02 06:03:30;;;;;;;;;;;;;;;15.81;44.00;101055.16;4989615;28;7266;-74
2023/06/02 06:05:55;;;;;;;;;;;;;;;15.83;44.04;101059.56;4974286;28;6776;-75
2023/06/02 06:08:21;;;;;;;;;;;;;;;15.88;44.09;101064.91;4983522;28;7380;-73
2023/06/02 06:10:46;;;;;;;;;;;;;;;15.89;43.83;101060.66;4985758;28;7351;-73
2023/06/02 06:13:12;;;;;;;;;;;;;;;15.92;44.25;101050.44;4975831;28;6967;-73
2023/06/02 06:15:38;;;;;;;;;;;;;;;15.94;43.61;101054.84;4966440;28;7178;-74
2023/06/02 06:18:04;;;;;;;;;;;;;;;15.94;44.18;101048.78;4987416;28;7244;-75
2023/06/02 06:20:30;;;;;;;;;;;;;;;15.95;43.57;101055.72;4957961;28;7003;-72
2023/06/02 06:22:56;;;;;;;;;;;;;;;15.98;43.91;101054.94;4987521;28;7538;-74
2023/06/02 06:25:21;;;;;;;;;;;;;;;16.00;44.30;101048.13;4933428;28;7224;-72
2023/06/02 06:27:47;;;;;;;;;;;;;;;16.03;43.40;101054.28;4954909;28;6799;-74
2023/06/02 06:30:13;;;;;;;;;;;;;;;16.08;43.94;101051.88;4954604;28;6796;-73
2023/06/02 06:32:38;;;;;;;;;;;;;;;16.12;44.06;101053.72;4964632;28;7092;-72
2023/06/02 06:35:05;;;;;;;;;;;;;;;16.17;43.83;101057.38;4993823;28;6967;-72
2023/06/02 06:37:31;;;;;;;;;;;;;;;16.18;43.99;101053.94;4964273;28;6792;-73
2023/06/02 06:39:56;;;;;;;;;;;;;;;16.19;44.14;101049.69;4987038;28;6768;-74
2023/06/02 06:42:22;;;;;;;;;;;;;;;16.22;44.23;101060.13;4962486;28;8295;-73
2023/06/02 06:44:49;;;;;;;;;;;;;;;16.28;43.63;101062.03;4992473;28;6776;-73
2023/06/02 06:47:15;;;;;;;;;;;;;;;16.35;43.97;101064.88;4977974;28;7678;-73
2023/06/02 06:49:40;;;;;;;;;;;;;;;16.44;43.69;101059.16;4960611;28;6832;-73
2023/06/02 06:52:06;;;;;;;;;;;;;;;16.51;43.62;101063.72;4965097;28;6950;-75
2023/06/02 06:54:32;;;;;;;;;;;;;;;16.54;43.64;101068.09;4990860;28;6961;-75
2023/06/02 06:56:57;;;;;;;;;;;;;;;16.58;43.24;101071.69;4961104;28;6976;-75
2023/06/02 06:59:23;;;;;;;;;;;;;;;16.59;43.60;101073.44;4977213;28;7068;-75
2023/06/02 07:01:49;;;;;;;;;;;;;;;16.62;42.83;101077.00;4984877;28;7030;-76
2023/06/02 07:04:15;;;;;;;;;;;;;;;16.65;43.25;101064.16;4985885;28;6812;-75
2023/06/02 07:06:41;;;;;;;;;;;;;;;16.67;42.95;101066.81;4974870;28;7443;-75
2023/06/02 07:09:08;;;;;;;;;;;;;;;16.71;42.98;101068.69;4985640;28;6796;-75
2023/06/02 07:11:34;;;;;;;;;;;;;;;16.78;43.09;101056.84;4951653;28;7157;-76
2023/06/02 07:13:59;;;;;;;;;;;;;;;16.82;42.47;101063.84;4960315;28;6772;-75
2023/06/02 07:16:25;;;;;;;;;;;;;;;16.84;42.47;101062.19;4956946;28;7241;-75
2023/06/02 07:18:51;;;;;;;;;;;;;;;16.88;42.71;101068.34;4956190;28;6795;-75
2023/06/02 07:21:16;;;;;;;;;;;;;;;16.96;43.15;101063.44;4975529;28;6788;-75
2023/06/02 07:23:42;;;;;;;;;;;;;;;17.04;43.14;101065.47;4971027;28;7255;-76
2023/06/02 07:26:07;;;;;;;;;;;;;;;17.16;42.86;101054.63;4949061;28;7201;-76
2023/06/02 07:28:33;;;;;;;;;;;;;;;17.25;42.34;101063.53;4999129;28;6783;-75
2023/06/02 07:30:59;;;;;;;;;;;;;;;17.33;42.55;101055.16;4994251;28;6795;-75
2023/06/02 07:33:24;;;;;;;;;;;;;;;17.48;42.04;101059.03;4994322;28;6792;-75
2023/06/02 07:35:50;;;;;;;;;;;;;;;17.60;41.63;101048.16;4962176;28;6843;-76
2023/06/02 07:38:16;;;;;;;;;;;;;;;17.69;41.39;101052.75;4963461;28;6945;-76
2023/06/02 07:40:41;;;;;;;;;;;;;;;17.77;41.27;101048.66;4977647;28;7307;-75
2023/06/02 07:43:07;;;;;;;;;;;;;;;17.83;41.20;101042.75;4964810;28;6965;-75
2023/06/02 07:45:32;;;;;;;;;;;;;;;17.86;41.04;101048.88;4972132;28;6787;-75
2023/06/02 07:47:58;;;;;;;;;;;;;;;17.86;41.49;101058.41;4978749;28;7063;-75
2023/06/02 07:50:24;;;;;;;;;;;;;;;17.80;40.95;101051.31;4966042;28;6819;-75
2023/06/02 07:52:50;;;;;;;;;;;;;;;17.75;40.95;101053.78;4952282;28;7082;-76
2023/06/02 07:55:16;;;;;;;;;;;;;;;17.75;40.97;101061.56;4958748;28;6971;-75
2023/06/02 07:57:42;;;;;;;;;;;;;;;17.72;41.28;101051.13;4952467;28;7445;-75
2023/06/02 08:00:16;;;;;;;;;;;;;;;17.72;41.62;101052.81;4968716;28;7021;-75
2023/06/02 08:02:43;;;;;;;;;;;;;;;17.75;41.28;101058.09;4993488;28;12101;-75
2023/06/02 08:05:13;;;;;;;;;;;;;;;17.80;41.33;101055.63;4961519;28;6788;-75
2023/06/02 08:07:40;;;;;;;;;;;;;;;17.86;41.89;101061.84;4949166;28;6986;-75
2023/06/02 08:10:07;;;;;;;;;;;;;;;17.90;41.54;101071.50;4966433;28;6792;-75
2023/06/02 08:12:34;;;;;;;;;;;;;;;17.95;41.74;101071.63;4951305;28;7242;-75
2023/06/02 08:15:00;;;;;;;;;;;;;;;17.95;41.18;101070.72;4967229;28;7381;-75
2023/06/02 08:17:29;;;;;;;;;;;;;;;17.93;41.10;101069.81;4971959;28;7034;-75
2023/06/02 08:20:00;;;;;;;;;;;;;;;17.93;41.57;101073.31;4993898;28;8186;-75
2023/06/02 08:22:27;;;;;;;;;;;;;;;17.95;41.06;101075.91;4968961;28;7196;-75
2023/06/02 08:24:56;;;;;;;;;;;;;;;17.94;41.22;101076.75;4971842;28;6999;-75
2023/06/02 08:27:23;;;;;;;;;;;;;;;17.96;40.78;101070.78;4976381;28;6852;-75
2023/06/02 08:29:51;;;;;;;;;;;;;;;18.03;41.13;101069.25;4994588;28;6989;-75
2023/06/02 08:32:18;;;;;;;;;;;;;;;18.10;40.99;101066.03;4977440;28;6982;-75
2023/06/02 08:34:50;;;;;;;;;;;;;;;18.24;40.71;101069.00;4949878;28;6987;-75
2023/06/02 08:37:20;;;;;;;;;;;;;;;18.41;40.50;101065.97;4964452;28;6804;-75
2023/06/02 08:39:49;;;;;;;;;;;;;;;18.53;39.89;101068.00;4974805;28;7053;-75
2023/06/02 08:42:16;;;;;;;;;;;;;;;18.56;39.56;101062.91;4953646;28;7151;-75
2023/06/02 08:44:44;;;;;;;;;;;;;;;18.57;39.29;101070.72;4995820;28;6819;-75
2023/06/02 08:47:12;;;;;;;;;;;;;;;18.63;39.44;101066.53;4997161;28;6807;-75
2023/06/02 08:49:46;;;;;;;;;;;;;;;18.71;39.65;101055.47;4974318;28;7452;-75
2023/06/02 08:52:18;;;;;;;;;;;;;;;18.81;39.08;101058.31;4985945;28;7003;-75
2023/06/02 08:54:44;;;;;;;;;;;;;;;18.94;39.04;101051.69;4991646;28;6807;-75
2023/06/02 08:57:16;;;;;;;;;;;;;;;19.10;39.04;101058.16;4983958;28;6986;-76
2023/06/02 08:59:46;;;;;;;;;;;;;;;19.24;38.86;101064.56;4963492;28;6980;-75
2023/06/02 09:02:13;;;;;;;;;;;;;;;19.36;38.66;101058.78;4958605;28;6947;-74
2023/06/02 09:04:39;;;;;;;;;;;;;;;19.44;38.29;101066.72;4987926;28;7018;-77
2023/06/02 09:07:20;;;;;;;;;;;;;;;19.54;37.82;101060.88;4970107;28;6784;-77
2023/06/02 09:09:50;;;;;;;;;;;;;;;19.65;38.03;101057.63;4974791;28;6864;-76
2023/06/02 09:12:17;;;;;;;;;;;;;;;19.75;37.69;101049.19;4993530;28;7084;-77
2023/06/02 09:14:46;;;;;;;;;;;;;;;20.04;38.00;101051.50;4954941;28;6796;-76
2023/06/02 09:17:30;;;;;;;;;;;;;;;20.36;37.51;101061.63;4971854;28;7021;-76
2023/06/02 09:20:00;;;;;;;;;;;;;;;20.51;36.73;101065.38;4981050;28;7043;-77
2023/06/02 09:22:26;;;;;;;;;;;;;;;20.49;36.37;101057.53;4961285;28;7026;-75
2023/06/02 09:24:54;;;;;;;;;;;;;;;20.37;36.67;101066.00;4978163;28;6788;-75
2023/06/02 09:27:20;;;;;;;;;;;;;;;20.28;36.27;101063.25;4962505;28;7036;-76
2023/06/02 09:29:48;;;;;;;;;;;;;;;20.19;36.33;101063.06;4992076;28;6807;-78
2023/06/02 09:32:18;;;;;;;;;;;;;;;20.19;36.35;101066.53;4963454;28;6796;-77
2023/06/02 09:34:45;;;;;;;;;;;;;;;20.51;37.08;101060.16;4987788;28;7285;-78
2023/06/02 09:37:19;;;;;;;;;;;;;;;21.15;36.79;101062.09;4961603;28;6935;-78
2023/06/02 09:39:49;;;;;;;;;;;;;;;21.87;35.63;101066.53;4994154;28;7118;-78
2023/06/02 09:42:21;;;;;;;;;;;;;;;22.09;34.84;101060.69;4964511;28;7074;-79
2023/06/02 09:45:08;;;;;;;;;;;;;;;21.88;34.44;101056.97;4980825;28;6983;-79
2023/06/02 09:47:41;;;;;;;;;;;;;;;21.63;34.58;101056.63;4975109;28;7197;-75
2023/06/02 09:50:07;;;;;;;;;;;;;;;21.47;34.73;101061.66;4976484;28;7172;-75
2023/06/02 09:52:33;;;;;;;;;;;;;;;21.39;34.73;101047.66;4962216;28;6788;-78
2023/06/02 09:55:00;;;;;;;;;;;;;;;21.40;34.56;101054.63;4952536;28;6811;-79
2023/06/02 09:57:26;;;;;;;;;;;;;;;21.43;34.57;101052.03;4959374;28;6883;-77
2023/06/02 09:59:52;;;;;;;;;;;;;;;21.40;34.71;101053.75;4958893;28;6783;-79
2023/06/02 10:02:18;;;;;;;;;;;;;;;21.36;34.69;101045.88;4987884;28;6803;-79
2023/06/02 10:04:46;;;;;;;;;;;;;;;21.36;34.67;101045.00;4957764;28;6857;-78
2023/06/02 10:07:38;;;;;;;;;;;;;;;21.24;34.38;101048.31;4957163;28;6788;-78
2023/06/02 10:10:10;;;;;;;;;;;;;;;21.12;34.44;101049.00;4961762;28;7223;-78
2023/06/02 10:13:01;;;;;;;;;;;;;;;21.18;34.65;101046.50;4968053;28;7292;-79
2023/06/02 10:16:00;;;;;;;;;;;;;;;21.15;34.71;101043.84;4964767;28;7394;-79
2023/06/02 10:19:12;;;;;;;;;;;;;;;21.26;34.50;101036.16;4964081;28;7005;-77
2023/06/02 10:22:22;;;;;;;;;;;;;;;21.64;34.35;101032.34;4961791;28;6803;-77
2023/06/02 10:25:31;;;;;;;;;;;;;;;22.25;33.57;101039.09;4984694;28;7079;-79
2023/06/02 10:28:02;;;;;;;;;;;;;;;22.76;33.34;101028.25;4957206;28;6851;-75
2023/06/02 10:30:28;;;;;;;;;;;;;;;23.46;33.47;101019.97;4993908;28;7451;-78
2023/06/02 10:32:55;;;;;;;;;;;;;;;24.24;32.62;101026.31;4954566;28;6867;-78
2023/06/02 10:35:21;;;;;;;;;;;;;;;24.88;31.66;101023.72;4975143;28;7971;-76
2023/06/02 10:38:07;;;;;;;;;;;;;;;25.51;31.08;101012.22;4955703;28;6914;-76
2023/06/02 10:40:48;;;;;;;;;;;;;;;26.33;30.36;101013.47;4979459;28;6832;-79
2023/06/02 10:43:14;;;;;;;;;;;;;;;26.67;29.40;101007.06;4950419;28;7255;-78
2023/06/02 10:45:41;;;;;;;;;;;;;;;26.90;29.45;101006.84;4986120;28;7155;-79
2023/06/02 10:48:42;;;;;;;;;;;;;;;27.07;29.02;101001.41;4952433;28;6991;-76
2023/06/02 10:51:10;;;;;;;;;;;;;;;27.23;28.95;101010.00;4958365;28;7280;-80
2023/06/02 10:54:06;;;;;;;;;;;;;;;27.41;28.51;101002.75;4975099;28;7157;-76
2023/06/02 10:56:35;;;;;;;;;;;;;;;27.47;27.94;101007.97;4970424;28;6824;-78
2023/06/02 10:59:00;;;;;;;;;;;;;;;27.47;27.88;100997.44;4962334;28;6783;-80
2023/06/02 11:01:51;;;;;;;;;;;;;;;27.20;27.82;101003.91;4979158;28;7398;-79
2023/06/02 11:04:27;;;;;;;;;;;;;;;26.48;27.91;101008.09;4952506;28;6796;-75
2023/06/02 11:07:26;;;;;;;;;;;;;;;26.34;28.43;101002.09;4984999;28;7018;-77
2023/06/02 11:09:59;;;;;;;;;;;;;;;26.53;28.00;101002.81;4956762;28;7082;-79
2023/06/02 11:12:50;;;;;;;;;;;;;;;26.81;28.13;101012.19;4977026;28;6811;-79
2023/06/02 11:15:20;;;;;;;;;;;;;;;27.10;27.76;100992.63;4955431;28;7853;-76
2023/06/02 11:17:48;;;;;;;;;;;;;;;27.41;27.77;100995.75;4985081;28;6815;-75
2023/06/02 11:20:15;;;;;;;;;;;;;;;27.63;27.11;100994.63;4989044;28;7138;-76
2023/06/02 11:22:43;;;;;;;;;;;;;;;27.81;27.34;100986.44;4986606;28;6812;-75
2023/06/02 11:25:15;;;;;;;;;;;;;;;28.26;27.27;100990.19;4960866;28;7018;-75
2023/06/02 11:27:47;;;;;;;;;;;;;;;28.74;26.81;100997.28;4956463;28;6827;-76
2023/06/02 11:30:16;;;;;;;;;;;;;;;28.72;25.91;101001.69;4979315;28;7055;-79
2023/06/02 11:32:49;;;;;;;;;;;;;;;28.47;26.04;100991.59;4961913;28;6792;-74
2023/06/02 11:35:20;;;;;;;;;;;;;;;28.44;26.12;100988.16;4988905;28;7518;-77
2023/06/02 11:38:02;;;;;;;;;;;;;;;28.69;26.06;100986.81;4962294;28;8036;-77
2023/06/02 11:40:33;;;;;;;;;;;;;;;28.87;25.38;100984.72;4977139;28;6803;-77
2023/06/02 11:42:59;;;;;;;;;;;;;;;28.92;25.49;100977.63;4957026;28;6868;-75
2023/06/02 11:45:27;;;;;;;;;;;;;;;28.95;25.14;100981.97;4956871;28;6848;-77
2023/06/02 11:48:11;;;;;;;;;;;;;;;29.04;25.35;100976.50;4975069;28;8652;-77
2023/06/02 11:50:37;;;;;;;;;;;;;;;29.26;25.28;100981.34;4953845;28;6903;-77
2023/06/02 11:53:15;;;;;;;;;;;;;;;29.35;24.78;100967.94;4959065;28;6808;-76
2023/06/02 11:55:40;;;;;;;;;;;;;;;29.20;24.60;100976.19;4955829;28;6855;-80
2023/06/02 11:58:27;;;;;;;;;;;;;;;28.82;25.07;100970.75;4986624;28;6938;-75
2023/06/02 12:01:17;;;;;;;;;;;;;;;28.34;25.13;100969.84;4956503;28;6808;-77
2023/06/02 12:04:06;;;;;;;;;;;;;;;28.02;25.22;100970.34;4973992;28;6879;-74
2023/06/02 12:06:36;;;;;;;;;;;;;;;27.98;25.70;100966.88;4994835;28;6871;-76
2023/06/02 12:09:18;;;;;;;;;;;;;;;28.06;25.23;100962.38;4990368;28;6796;-77
2023/06/02 12:11:46;;;;;;;;;;;;;;;27.99;25.41;100961.59;4991443;28;6911;-75
2023/06/02 12:14:16;;;;;;;;;;;;;;;27.94;25.56;100967.84;4991359;28;6830;-78
2023/06/02 12:16:43;;;;;;;;;;;;;;;27.94;25.37;100970.47;4962279;28;7255;-74
2023/06/02 12:19:21;;;;;;;;;;;;;;;27.94;25.67;100965.22;4969201;28;7237;-78
2023/06/02 12:21:53;;;;;;;;;;;;;;;27.94;25.38;100965.22;4976850;28;8733;-78
2023/06/02 12:24:34;;;;;;;;;;;;;;;28.03;25.77;100965.06;4973806;28;7023;-77
2023/06/02 12:27:00;;;;;;;;;;;;;;;28.30;25.38;100959.38;4961157;28;6990;-78
2023/06/02 12:29:27;;;;;;;;;;;;;;;28.72;25.70;100958.66;4992674;28;6988;-78
2023/06/02 12:32:06;;;;;;;;;;;;;;;29.10;25.44;100951.75;4987986;28;6804;-78
2023/06/02 12:34:32;;;;;;;;;;;;;;;29.28;24.70;100949.66;4956896;28;7659;-78
2023/06/02 12:37:00;;;;;;;;;;;;;;;29.30;24.64;100947.84;4960032;28;6792;-77
2023/06/02 12:39:26;;;;;;;;;;;;;;;29.36;25.10;100945.06;4978148;28;7270;-78
2023/06/02 12:41:52;;;;;;;;;;;;;;;29.51;24.48;100952.66;4963503;28;6987;-76
2023/06/02 12:44:18;;;;;;;;;;;;;;;29.59;24.50;100949.84;4978269;28;8054;-79
2023/06/02 12:46:44;;;;;;;;;;;;;;;29.40;24.04;100954.66;4990900;28;6796;-78
2023/06/02 12:49:12;;;;;;;;;;;;;;;29.07;24.00;100944.78;4973403;28;6957;-77
2023/06/02 12:51:38;;;;;;;;;;;;;;;28.80;24.42;100944.41;4978961;28;6788;-77
2023/06/02 12:54:04;;;;;;;;;;;;;;;28.74;24.43;100946.28;4993798;28;7240;-78
2023/06/02 12:56:31;;;;;;;;;;;;;;;28.72;24.45;100948.94;4965687;28;6848;-75